Time;durP1;ratioP1;P1;durP2;ratioP2;P2;SDS_P1;SDS_P2;PMS_P1;PMS_P2;Temp;Humidity;BMP_temperature;BMP_pressure;BME280_temperature;BME280_humidity;BME280_pressure;Samples;Min_cycle;Max_cycle;Signal;HPM_P1;HPM_P2
2023/10/28 00:01:12;;;;;;;5.10;4.33;;;12.30;99.90;;;;;;4994972;28;20667;-89
2023/10/28 00:03:39;;;;;;;5.07;3.57;;;12.30;99.90;;;;;;5010679;28;20191;-89
2023/10/28 00:06:05;;;;;;;8.87;3.97;;;12.20;99.90;;;;;;5026181;28;20202;-90
2023/10/28 00:08:30;;;;;;;3.77;2.23;;;12.30;99.90;;;;;;4993841;28;20357;-90
2023/10/28 00:10:56;;;;;;;11.83;5.43;;;12.30;99.90;;;;;;5010476;28;20222;-89
2023/10/28 00:13:22;;;;;;;5.90;3.93;;;12.30;99.90;;;;;;5010320;28;20198;-89
2023/10/28 00:15:48;;;;;;;9.60;4.83;;;12.30;99.90;;;;;;5011496;28;20183;-90
2023/10/28 00:18:14;;;;;;;4.60;3.27;;;12.30;99.90;;;;;;5009653;28;20272;-90
2023/10/28 00:20:41;;;;;;;3.80;2.63;;;12.30;99.90;;;;;;5009910;28;20242;-90
2023/10/28 00:23:07;;;;;;;5.37;2.90;;;12.40;99.90;;;;;;5010789;28;20301;-90
2023/10/28 00:25:33;;;;;;;5.83;3.37;;;12.40;99.90;;;;;;5002770;28;20309;-90
2023/10/28 00:27:59;;;;;;;8.93;5.00;;;12.30;99.90;;;;;;5026900;28;20191;-90
2023/10/28 00:30:26;;;;;;;10.67;6.13;;;12.30;99.90;;;;;;5012803;28;20714;-89
2023/10/28 00:32:52;;;;;;;4.87;4.40;;;12.30;99.90;;;;;;5014075;28;20290;-90
2023/10/28 00:35:21;;;;;;;9.70;5.27;;;12.40;99.90;;;;;;4998017;28;20297;-90
2023/10/28 00:37:47;;;;;;;6.07;5.27;;;12.40;99.90;;;;;;4998421;28;20218;-90
2023/10/28 00:40:13;;;;;;;6.27;5.53;;;12.30;99.90;;;;;;5013588;28;20253;-90
2023/10/28 00:42:39;;;;;;;14.23;5.43;;;12.40;99.90;;;;;;5014247;28;20191;-90
2023/10/28 00:45:08;;;;;;;7.80;6.17;;;12.40;99.90;;;;;;5013427;28;20305;-90
2023/10/28 00:47:34;;;;;;;7.97;4.23;;;12.40;99.90;;;;;;5013815;28;20225;-90
2023/10/28 00:50:01;;;;;;;8.83;4.93;;;12.40;99.90;;;;;;5021265;28;20214;-90
2023/10/28 00:52:27;;;;;;;5.10;3.67;;;12.40;99.90;;;;;;4997533;28;20678;-90
2023/10/28 00:54:54;;;;;;;4.90;4.37;;;12.50;99.90;;;;;;5013626;28;20179;-90
2023/10/28 00:57:21;;;;;;;9.57;4.80;;;12.50;99.90;;;;;;5030218;28;20234;-90
2023/10/28 00:59:47;;;;;;;5.73;5.13;;;12.50;99.90;;;;;;5013678;28;20225;-90
2023/10/28 01:02:13;;;;;;;5.83;3.93;;;12.40;99.90;;;;;;4997628;28;20226;-90
2023/10/28 01:04:39;;;;;;;7.87;5.07;;;12.40;99.90;;;;;;5013604;28;20219;-90
2023/10/28 01:07:05;;;;;;;8.43;6.67;;;12.50;99.90;;;;;;5046789;28;20240;-90
2023/10/28 01:09:31;;;;;;;12.00;9.27;;;12.40;99.90;;;;;;5028940;28;20621;-90
2023/10/28 01:11:57;;;;;;;9.53;6.07;;;12.40;99.90;;;;;;4996964;28;20214;-90
2023/10/28 01:14:23;;;;;;;8.47;7.33;;;12.40;99.90;;;;;;4997379;28;20636;-90
2023/10/28 01:16:49;;;;;;;13.03;7.73;;;12.30;99.90;;;;;;5029302;28;20209;-90
2023/10/28 01:19:15;;;;;;;9.93;4.90;;;12.20;99.90;;;;;;4996290;28;20231;-89
2023/10/28 01:21:42;;;;;;;7.00;6.30;;;12.20;99.90;;;;;;5014017;28;20883;-90
2023/10/28 01:24:08;;;;;;;10.27;6.07;;;12.20;99.90;;;;;;5036705;28;20214;-90
2023/10/28 01:26:35;;;;;;;9.70;5.50;;;12.00;99.90;;;;;;4996783;28;20245;-90
2023/10/28 01:29:01;;;;;;;7.93;5.63;;;12.10;99.90;;;;;;4996814;28;20272;-90
2023/10/28 01:31:27;;;;;;;7.47;6.73;;;12.00;99.90;;;;;;4996798;28;20211;-90
2023/10/28 01:33:53;;;;;;;7.77;3.93;;;11.90;99.90;;;;;;4996946;28;20186;-90
2023/10/28 01:36:18;;;;;;;8.97;6.40;;;11.90;99.90;;;;;;5012411;28;20229;-90
2023/10/28 01:38:44;;;;;;;11.93;6.40;;;12.00;99.90;;;;;;4996487;28;20390;-90
2023/10/28 01:41:13;;;;;;;9.10;6.20;;;11.90;99.90;;;;;;5012405;28;20221;-90
2023/10/28 01:43:44;;;;;;;7.13;4.33;;;11.90;99.90;;;;;;4996896;28;20691;-90
2023/10/28 01:46:10;;;;;;;7.13;5.50;;;11.90;99.90;;;;;;5013363;28;20591;-90
2023/10/28 01:48:36;;;;;;;6.00;5.40;;;11.90;99.90;;;;;;4996765;28;20179;-90
2023/10/28 01:51:02;;;;;;;12.07;7.43;;;11.90;99.90;;;;;;4996165;28;20230;-91
2023/10/28 01:53:28;;;;;;;9.60;7.33;;;11.80;99.90;;;;;;5011708;28;20773;-90
2023/10/28 01:55:54;;;;;;;11.80;6.77;;;11.80;99.90;;;;;;5011796;28;20272;-90
2023/10/28 01:58:20;;;;;;;8.93;4.83;;;11.80;99.90;;;;;;4995976;28;20210;-90
2023/10/28 02:00:46;;;;;;;11.23;7.50;;;11.80;99.90;;;;;;5012983;28;20218;-90
2023/10/28 02:03:11;;;;;;;11.13;7.67;;;11.80;99.90;;;;;;4995776;28;20265;-90
2023/10/28 02:05:38;;;;;;;15.87;5.83;;;11.80;99.90;;;;;;4995690;28;20256;-90
2023/10/28 02:08:04;;;;;;;10.33;7.20;;;11.80;99.90;;;;;;5012557;28;20245;-90
2023/10/28 02:10:30;;;;;;;7.80;5.43;;;11.80;99.90;;;;;;5012023;28;20241;-90
2023/10/28 02:12:56;;;;;;;7.17;5.03;;;11.80;99.90;;;;;;5012456;28;20421;-90
2023/10/28 02:15:21;;;;;;;8.40;5.23;;;11.70;99.90;;;;;;5011482;28;20218;-90
2023/10/28 02:17:48;;;;;;;9.40;6.03;;;11.70;99.90;;;;;;5011561;28;20214;-90
2023/10/28 02:20:14;;;;;;;6.13;5.53;;;11.80;99.90;;;;;;4994812;28;20615;-90
2023/10/28 02:22:40;;;;;;;11.90;6.37;;;11.70;99.90;;;;;;5028204;28;20223;-90
2023/10/28 02:25:08;;;;;;;8.17;5.37;;;11.80;99.90;;;;;;5028106;28;20187;-90
2023/10/28 02:27:37;;;;;;;9.60;6.43;;;11.70;99.90;;;;;;5011583;28;20268;-90
2023/10/28 02:30:09;;;;;;;11.87;5.37;;;11.80;99.90;;;;;;5011506;28;20320;-90
2023/10/28 02:32:36;;;;;;;5.70;4.07;;;11.80;99.90;;;;;;5027481;28;20246;-91
2023/10/28 02:35:02;;;;;;;9.07;6.40;;;11.70;99.90;;;;;;5028057;28;20222;-90
2023/10/28 02:37:29;;;;;;;11.27;6.87;;;11.70;99.90;;;;;;5036576;28;20651;-90
2023/10/28 02:39:55;;;;;;;15.47;6.37;;;11.70;99.90;;;;;;5011677;28;20198;-90
2023/10/28 02:42:25;;;;;;;11.33;7.70;;;11.70;99.90;;;;;;4995148;28;20749;-90
2023/10/28 02:44:51;;;;;;;5.67;4.60;;;11.70;99.90;;;;;;5027957;28;20707;-90
2023/10/28 02:47:17;;;;;;;12.37;6.57;;;11.70;99.90;;;;;;5028007;28;20776;-90
2023/10/28 02:49:43;;;;;;;9.17;6.67;;;11.70;99.90;;;;;;5011221;28;20230;-91
2023/10/28 02:52:08;;;;;;;12.30;4.97;;;11.60;99.90;;;;;;5028200;28;20187;-90
2023/10/28 02:54:35;;;;;;;9.03;5.27;;;11.60;99.90;;;;;;5011050;28;20290;-92
2023/10/28 02:57:01;;;;;;;7.17;6.47;;;11.60;99.90;;;;;;5011394;28;20244;-91
2023/10/28 02:59:27;;;;;;;11.63;5.60;;;11.70;99.90;;;;;;5011585;28;20277;-91
2023/10/28 03:01:53;;;;;;;8.40;5.00;;;11.60;99.90;;;;;;5029001;28;20280;-91
2023/10/28 03:04:19;;;;;;;7.50;5.83;;;11.60;99.90;;;;;;4994976;28;20526;-92
2023/10/28 03:06:45;;;;;;;10.03;6.93;;;11.60;99.90;;;;;;5011901;28;20244;-91
2023/10/28 03:09:12;;;;;;;16.90;8.20;;;11.60;99.90;;;;;;4995313;28;20722;-91
2023/10/28 03:11:38;;;;;;;9.80;6.00;;;11.50;99.90;;;;;;5026824;28;20234;-91
2023/10/28 03:14:06;;;;;;;8.20;6.87;;;11.40;99.90;;;;;;5011253;28;20221;-91
2023/10/28 03:16:32;;;;;;;10.33;6.40;;;11.40;99.90;;;;;;5011067;28;20225;-91
2023/10/28 03:18:58;;;;;;;6.17;5.57;;;11.30;99.90;;;;;;4994287;28;20194;-90
2023/10/28 03:21:24;;;;;;;6.30;5.53;;;11.30;99.90;;;;;;4993673;28;20219;-91
2023/10/28 03:23:50;;;;;;;5.20;4.30;;;11.20;99.90;;;;;;5007664;28;20750;-91
2023/10/28 03:26:16;;;;;;;10.47;7.10;;;11.20;99.90;;;;;;5008130;28;20218;-90
2023/10/28 03:28:42;;;;;;;5.53;4.07;;;11.10;99.90;;;;;;4993542;28;20560;-91
2023/10/28 03:31:09;;;;;;;4.87;4.13;;;11.00;99.90;;;;;;4976283;28;20222;-91
2023/10/28 03:33:37;;;;;;;6.33;3.90;;;11.00;99.90;;;;;;5007790;28;20207;-91
2023/10/28 03:36:09;;;;;;;5.30;3.67;;;10.90;99.90;;;;;;4991423;28;20223;-91
2023/10/28 03:38:35;;;;;;;8.27;5.27;;;10.80;99.90;;;;;;4992828;28;20222;-90
2023/10/28 03:41:08;;;;;;;3.70;3.37;;;10.80;99.90;;;;;;4992609;28;20236;-91
2023/10/28 03:43:35;;;;;;;5.23;4.53;;;10.70;99.90;;;;;;5007524;28;20221;-90
2023/10/28 03:46:02;;;;;;;12.03;6.50;;;10.70;99.90;;;;;;4976538;28;20546;-90
2023/10/28 03:48:29;;;;;;;5.03;3.67;;;10.60;99.90;;;;;;5008363;28;20752;-91
2023/10/28 03:51:05;;;;;;;3.83;3.37;;;10.60;99.90;;;;;;4975474;28;20231;-91
2023/10/28 03:53:31;;;;;;;8.40;5.10;;;10.60;99.90;;;;;;5012932;28;20225;-91
2023/10/28 03:55:57;;;;;;;6.47;4.33;;;10.50;99.90;;;;;;5000903;28;20257;-90
2023/10/28 03:58:23;;;;;;;6.80;5.87;;;10.50;99.90;;;;;;5007848;28;20654;-90
2023/10/28 04:00:53;;;;;;;6.30;5.80;;;10.40;99.90;;;;;;4978115;28;20189;-90
2023/10/28 04:03:22;;;;;;;4.50;4.20;;;10.50;99.90;;;;;;4985872;28;20220;-90
2023/10/28 04:05:53;;;;;;;9.80;4.93;;;10.40;99.90;;;;;;5003677;28;20206;-90
2023/10/28 04:08:19;;;;;;;8.10;3.40;;;10.40;99.90;;;;;;5028549;28;20214;-90
2023/10/28 04:10:46;;;;;;;8.60;5.73;;;10.30;99.90;;;;;;4978961;28;20301;-90
2023/10/28 04:13:14;;;;;;;5.67;2.63;;;10.20;99.90;;;;;;4978057;28;20191;-91
2023/10/28 04:15:40;;;;;;;6.23;4.17;;;10.20;99.90;;;;;;4981820;28;20187;-90
2023/10/28 04:18:06;;;;;;;9.33;3.30;;;10.10;99.90;;;;;;4977389;28;20214;-90
2023/10/28 04:20:33;;;;;;;8.37;4.23;;;10.10;99.90;;;;;;4999863;28;20233;-91
2023/10/28 04:22:59;;;;;;;2.93;2.73;;;10.00;99.90;;;;;;5005818;28;20214;-90
2023/10/28 04:25:24;;;;;;;4.77;3.57;;;10.00;99.90;;;;;;5004758;28;20187;-90
2023/10/28 04:27:50;;;;;;;6.13;2.83;;;10.00;99.90;;;;;;5006409;28;20626;-91
2023/10/28 04:30:16;;;;;;;4.60;3.73;;;10.00;99.90;;;;;;5006681;28;20230;-90
2023/10/28 04:32:43;;;;;;;6.90;3.00;;;10.00;99.90;;;;;;5004588;28;20210;-90
2023/10/28 04:35:12;;;;;;;3.70;3.13;;;10.00;99.90;;;;;;5006591;28;21212;-90
2023/10/28 04:37:37;;;;;;;4.70;3.10;;;10.00;99.90;;;;;;5003771;28;20489;-90
2023/10/28 04:40:05;;;;;;;10.00;5.73;;;10.00;99.90;;;;;;5021140;28;20191;-90
2023/10/28 04:42:31;;;;;;;4.33;3.93;;;9.90;99.90;;;;;;5004433;28;20615;-90
2023/10/28 04:44:57;;;;;;;17.30;4.30;;;9.90;99.90;;;;;;5004175;28;20238;-90
2023/10/28 04:47:24;;;;;;;9.80;4.00;;;9.80;99.90;;;;;;5020690;28;20260;-90
2023/10/28 04:49:50;;;;;;;35.47;4.03;;;9.90;99.90;;;;;;5005057;28;20292;-90
2023/10/28 04:52:16;;;;;;;3.70;3.27;;;9.80;99.90;;;;;;4997264;28;20190;-90
2023/10/28 04:54:41;;;;;;;3.33;2.47;;;9.90;99.90;;;;;;5019524;28;20251;-90
2023/10/28 04:57:09;;;;;;;6.47;4.17;;;10.00;99.90;;;;;;5004242;28;20203;-90
2023/10/28 04:59:34;;;;;;;3.67;3.03;;;9.90;99.90;;;;;;5005428;28;20217;-90
2023/10/28 05:02:00;;;;;;;9.63;3.67;;;9.90;99.90;;;;;;5003765;28;20210;-90
2023/10/28 05:04:27;;;;;;;3.30;2.17;;;9.90;99.90;;;;;;4996114;28;20191;-90
2023/10/28 05:06:53;;;;;;;2.50;2.30;;;9.90;99.90;;;;;;5004493;28;20187;-90
2023/10/28 05:09:22;;;;;;;3.47;3.03;;;9.90;99.90;;;;;;5012984;28;20745;-91
2023/10/28 05:12:01;;;;;;;4.70;3.97;;;9.90;99.90;;;;;;5006271;28;20218;-91
2023/10/28 05:14:27;;;;;;;6.30;3.23;;;9.80;99.90;;;;;;5020259;28;20214;-90
2023/10/28 05:16:54;;;;;;;5.30;2.23;;;9.80;99.90;;;;;;4996409;28;20225;-90
2023/10/28 05:19:23;;;;;;;3.97;3.33;;;9.80;99.90;;;;;;5009137;28;20219;-90
2023/10/28 05:21:49;;;;;;;5.63;4.27;;;9.80;99.90;;;;;;4962266;28;20576;-90
2023/10/28 05:24:16;;;;;;;4.80;2.90;;;9.80;99.90;;;;;;4975037;28;20223;-90
2023/10/28 05:26:43;;;;;;;1.50;1.40;;;9.70;99.90;;;;;;5000265;28;20207;-90
2023/10/28 05:29:09;;;;;;;1.80;1.60;;;9.70;99.90;;;;;;4983835;28;20282;-89
2023/10/28 05:31:38;;;;;;;4.00;3.53;;;9.70;99.90;;;;;;4975004;28;20591;-90
2023/10/28 05:34:04;;;;;;;5.80;5.23;;;9.70;99.90;;;;;;4975615;28;20199;-89
2023/10/28 05:36:29;;;;;;;4.40;4.07;;;9.70;99.90;;;;;;4990625;28;20680;-88
2023/10/28 05:38:55;;;;;;;6.70;4.00;;;9.80;99.90;;;;;;5007927;28;20696;-90
2023/10/28 05:41:22;;;;;;;2.83;2.33;;;9.80;99.90;;;;;;4992393;28;20215;-90
2023/10/28 05:43:48;;;;;;;7.30;4.63;;;9.90;99.90;;;;;;4975531;28;20249;-90
2023/10/28 05:46:14;;;;;;;6.80;3.73;;;9.80;99.90;;;;;;4974919;28;20245;-90
2023/10/28 05:48:40;;;;;;;15.93;3.17;;;9.80;99.90;;;;;;4974306;28;20233;-89
2023/10/28 05:51:06;;;;;;;7.83;4.63;;;9.70;99.90;;;;;;4966060;28;20648;-89
2023/10/28 05:53:32;;;;;;;4.77;2.93;;;9.70;99.90;;;;;;4990459;28;20253;-89
2023/10/28 05:55:57;;;;;;;4.03;3.47;;;9.70;99.90;;;;;;4975581;28;20211;-90
2023/10/28 05:58:24;;;;;;;6.17;2.10;;;9.70;99.90;;;;;;4974319;28;20198;-90
2023/10/28 06:00:50;;;;;;;6.00;4.00;;;9.70;99.90;;;;;;4991942;28;20187;-90
2023/10/28 06:03:15;;;;;;;3.77;3.07;;;9.70;99.90;;;;;;4981393;28;20206;-90
2023/10/28 06:05:41;;;;;;;5.30;3.90;;;9.70;99.90;;;;;;4974520;28;20262;-92
2023/10/28 06:08:08;;;;;;;8.70;4.20;;;9.70;99.90;;;;;;4967715;28;20222;-89
2023/10/28 06:10:34;;;;;;;6.77;3.00;;;9.70;99.90;;;;;;4966495;28;20278;-90
2023/10/28 06:13:01;;;;;;;3.23;2.67;;;9.80;99.90;;;;;;4974986;28;20237;-90
2023/10/28 06:15:27;;;;;;;5.17;3.83;;;9.80;99.90;;;;;;4975840;28;20318;-88
2023/10/28 06:17:53;;;;;;;7.87;3.90;;;9.90;99.90;;;;;;4992034;28;20219;-89
2023/10/28 06:20:20;;;;;;;6.57;3.57;;;9.80;99.90;;;;;;5002942;28;20229;-89
2023/10/28 06:22:46;;;;;;;11.30;2.80;;;9.80;99.90;;;;;;4992353;28;20692;-91
2023/10/28 06:25:14;;;;;;;3.50;3.13;;;9.90;99.90;;;;;;4958661;28;20222;-89
2023/10/28 06:27:40;;;;;;;3.93;3.43;;;9.80;99.90;;;;;;4991649;28;20671;-90
2023/10/28 06:30:11;;;;;;;3.50;3.20;;;10.00;99.90;;;;;;4992551;28;20231;-89
2023/10/28 06:32:38;;;;;;;7.23;3.37;;;10.10;99.90;;;;;;5008256;28;20211;-89
2023/10/28 06:35:05;;;;;;;8.03;4.33;;;10.20;99.90;;;;;;4968299;28;20206;-88
2023/10/28 06:37:30;;;;;;;3.20;2.70;;;10.30;99.90;;;;;;4982837;28;20299;-88
2023/10/28 06:39:58;;;;;;;5.33;3.13;;;10.30;99.90;;;;;;4967610;28;20708;-88
2023/10/28 06:42:24;;;;;;;7.10;4.27;;;10.40;99.90;;;;;;4984643;28;20214;-89
2023/10/28 06:44:50;;;;;;;2.07;1.93;;;10.40;99.90;;;;;;4986016;28;20207;-92
2023/10/28 06:47:16;;;;;;;9.00;5.33;;;10.50;99.90;;;;;;4998433;28;20225;-89
2023/10/28 06:49:42;;;;;;;3.33;3.13;;;10.70;99.90;;;;;;4985112;28;20258;-88
2023/10/28 06:52:08;;;;;;;3.93;3.33;;;10.60;99.90;;;;;;4978425;28;20240;-88
2023/10/28 06:54:34;;;;;;;2.97;2.20;;;10.80;99.90;;;;;;4992451;28;20210;-89
2023/10/28 06:57:00;;;;;;;4.90;3.77;;;10.80;99.90;;;;;;4967051;28;20286;-88
2023/10/28 06:59:26;;;;;;;9.83;5.50;;;10.90;99.90;;;;;;4966787;28;20555;-88
2023/10/28 07:01:52;;;;;;;5.23;4.13;;;10.80;99.90;;;;;;4982908;28;20211;-88
2023/10/28 07:04:18;;;;;;;6.00;3.57;;;11.00;99.90;;;;;;4989533;28;20193;-87
2023/10/28 07:06:44;;;;;;;8.13;4.97;;;11.00;99.90;;;;;;4969090;28;20191;-88
2023/10/28 07:09:10;;;;;;;6.77;5.93;;;11.10;99.90;;;;;;4965603;28;20714;-88
2023/10/28 07:11:35;;;;;;;5.53;3.23;;;11.20;99.90;;;;;;4990922;28;20218;-88
2023/10/28 07:14:02;;;;;;;10.97;5.90;;;11.30;99.90;;;;;;4959546;28;20257;-88
2023/10/28 07:16:28;;;;;;;5.87;3.17;;;11.30;99.90;;;;;;4967812;28;20198;-89
2023/10/28 07:18:54;;;;;;;3.33;3.13;;;11.40;99.90;;;;;;5007025;28;20194;-87
2023/10/28 07:21:20;;;;;;;5.50;4.60;;;11.50;99.90;;;;;;5006144;28;20300;-89
2023/10/28 07:23:46;;;;;;;7.37;3.30;;;11.50;99.90;;;;;;5027911;28;20690;-89
2023/10/28 07:26:12;;;;;;;3.60;3.33;;;11.70;99.90;;;;;;5010579;28;20215;-89
2023/10/28 07:28:39;;;;;;;5.33;3.43;;;11.70;99.90;;;;;;5011929;28;20698;-89
2023/10/28 07:31:06;;;;;;;14.27;3.97;;;11.80;99.90;;;;;;5013780;28;20217;-89
2023/10/28 07:33:32;;;;;;;7.00;6.13;;;11.90;99.90;;;;;;5027567;28;20694;-90
2023/10/28 07:36:01;;;;;;;5.83;2.70;;;11.90;99.90;;;;;;5011443;28;20206;-89
2023/10/28 07:38:28;;;;;;;8.43;4.77;;;11.80;99.90;;;;;;5018019;28;20620;-89
2023/10/28 07:40:55;;;;;;;4.67;3.50;;;11.90;99.90;;;;;;5025433;28;20292;-90
2023/10/28 07:43:21;;;;;;;10.90;3.87;;;11.90;99.90;;;;;;5011517;28;20191;-90
2023/10/28 07:45:47;;;;;;;13.87;3.87;;;11.90;99.90;;;;;;4995372;28;20193;-90
2023/10/28 07:48:14;;;;;;;4.40;3.73;;;12.00;99.90;;;;;;5010343;28;20219;-89
2023/10/28 07:50:41;;;;;;;2.20;2.10;;;12.10;99.90;;;;;;5031733;28;20263;-89
2023/10/28 07:53:07;;;;;;;8.53;3.60;;;12.30;99.90;;;;;;5027535;28;20263;-89
2023/10/28 07:55:33;;;;;;;4.10;3.70;;;12.40;99.90;;;;;;5010473;28;20578;-90
2023/10/28 07:58:00;;;;;;;2.77;2.57;;;12.40;99.90;;;;;;5010446;28;20185;-89
2023/10/28 08:00:26;;;;;;;4.20;2.33;;;12.40;99.90;;;;;;5021531;28;20582;-89
2023/10/28 08:02:55;;;;;;;5.90;3.83;;;12.40;99.90;;;;;;5012694;28;20287;-90
2023/10/28 08:05:24;;;;;;;4.27;1.53;;;12.50;99.90;;;;;;5027892;28;20217;-91
2023/10/28 08:07:50;;;;;;;3.63;2.77;;;12.60;99.90;;;;;;5028400;28;20213;-89
2023/10/28 08:10:22;;;;;;;3.43;2.30;;;12.60;99.90;;;;;;4994903;28;20298;-89
2023/10/28 08:12:51;;;;;;;4.20;3.27;;;12.70;99.90;;;;;;5012596;28;20178;-90
2023/10/28 08:15:20;;;;;;;9.87;3.00;;;12.90;99.90;;;;;;5027589;28;20213;-89
2023/10/28 08:17:46;;;;;;;2.60;2.40;;;13.00;99.90;;;;;;5010756;28;20214;-89
2023/10/28 08:20:14;;;;;;;10.37;5.67;;;13.00;99.90;;;;;;4994299;28;20240;-89
2023/10/28 08:22:40;;;;;;;4.53;2.83;;;12.90;99.90;;;;;;4994211;28;20293;-88
2023/10/28 08:25:06;;;;;;;4.03;3.70;;;13.10;99.90;;;;;;5010676;28;20186;-89
2023/10/28 08:27:32;;;;;;;2.90;2.70;;;13.10;99.90;;;;;;5011297;28;20206;-89
2023/10/28 08:30:01;;;;;;;2.57;2.37;;;13.20;99.90;;;;;;4993290;28;20559;-89
2023/10/28 08:32:27;;;;;;;3.07;1.53;;;13.10;99.90;;;;;;5041878;28;20218;-89
2023/10/28 08:34:54;;;;;;;5.33;1.93;;;13.10;99.90;;;;;;4994770;28;20274;-88
2023/10/28 08:37:21;;;;;;;3.70;2.43;;;13.00;99.90;;;;;;5010452;28;20191;-89
2023/10/28 08:39:47;;;;;;;2.73;2.33;;;13.00;99.90;;;;;;5010852;28;20628;-89
2023/10/28 08:42:13;;;;;;;3.30;2.60;;;13.00;99.90;;;;;;5009552;28;20260;-89
2023/10/28 08:44:40;;;;;;;2.37;1.70;;;13.00;99.90;;;;;;5009596;28;20242;-89
2023/10/28 08:47:06;;;;;;;3.00;1.90;;;12.90;99.90;;;;;;5010386;28;20203;-90
2023/10/28 08:49:38;;;;;;;3.27;2.53;;;12.90;99.90;;;;;;5027980;28;20234;-90
2023/10/28 08:52:09;;;;;;;2.53;2.30;;;13.00;99.90;;;;;;5030348;28;20191;-88
2023/10/28 08:54:35;;;;;;;2.50;2.40;;;13.10;99.90;;;;;;5046449;28;20218;-88
2023/10/28 08:57:03;;;;;;;2.70;2.37;;;13.10;99.90;;;;;;4998467;28;20206;-88
2023/10/28 08:59:29;;;;;;;3.87;2.63;;;13.10;99.90;;;;;;5030363;28;20246;-89
2023/10/28 09:01:57;;;;;;;5.20;2.57;;;13.10;99.90;;;;;;5014769;28;20205;-89
2023/10/28 09:04:25;;;;;;;3.57;2.57;;;13.10;99.90;;;;;;5030443;28;20247;-89
2023/10/28 09:06:52;;;;;;;1.03;1.03;;;12.90;99.90;;;;;;5031349;28;20581;-88
2023/10/28 09:09:21;;;;;;;3.07;2.87;;;12.90;99.90;;;;;;5031013;28;20215;-88
2023/10/28 09:11:51;;;;;;;2.93;2.13;;;12.90;99.90;;;;;;5013787;28;20316;-88
2023/10/28 09:14:17;;;;;;;3.53;2.50;;;12.90;99.90;;;;;;5014159;28;20444;-89
2023/10/28 09:16:43;;;;;;;4.07;2.43;;;12.90;99.90;;;;;;4997826;28;20210;-88
2023/10/28 09:19:20;;;;;;;1.90;1.80;;;12.80;99.90;;;;;;5014586;28;20201;-89
2023/10/28 09:21:51;;;;;;;5.23;2.50;;;12.80;99.90;;;;;;5002186;28;20554;-88
2023/10/28 09:24:17;;;;;;;2.43;1.27;;;12.80;99.90;;;;;;5001348;28;20211;-87
2023/10/28 09:26:43;;;;;;;5.93;3.13;;;12.80;99.90;;;;;;5000201;28;20199;-87
2023/10/28 09:29:10;;;;;;;16.77;2.87;;;12.80;99.90;;;;;;5000595;28;20219;-88
2023/10/28 09:31:37;;;;;;;3.50;2.57;;;12.80;99.90;;;;;;4984618;28;20231;-87
2023/10/28 09:34:04;;;;;;;4.33;1.87;;;12.80;99.90;;;;;;4993219;28;20209;-89
2023/10/28 09:36:30;;;;;;;1.40;1.03;;;12.80;99.90;;;;;;5000722;28;20211;-88
2023/10/28 09:38:56;;;;;;;2.27;1.93;;;12.90;99.90;;;;;;5018311;28;20215;-88
2023/10/28 09:41:22;;;;;;;2.63;2.33;;;12.90;99.90;;;;;;5002152;28;20298;-88
2023/10/28 09:43:49;;;;;;;2.73;1.87;;;12.90;99.90;;;;;;4994825;28;20231;-90
2023/10/28 09:46:20;;;;;;;1.87;1.73;;;12.90;99.90;;;;;;5016319;28;20190;-88
2023/10/28 09:48:48;;;;;;;3.20;1.77;;;13.10;99.90;;;;;;4986426;28;20187;-89
2023/10/28 09:51:23;;;;;;;1.30;1.23;;;13.10;99.90;;;;;;4983622;28;20218;-89
2023/10/28 09:53:58;;;;;;;1.87;1.63;;;13.10;99.90;;;;;;4986138;28;20214;-90
2023/10/28 09:56:33;;;;;;;2.27;1.57;;;13.20;99.90;;;;;;5017747;28;20300;-90
2023/10/28 09:59:06;;;;;;;5.30;2.93;;;13.30;99.90;;;;;;5000003;28;20289;-89
2023/10/28 10:01:48;;;;;;;3.07;2.23;;;13.30;99.90;;;;;;4999073;28;20242;-89
2023/10/28 10:04:23;;;;;;;4.93;2.93;;;13.30;99.90;;;;;;5020851;28;20544;-90
2023/10/28 10:06:49;;;;;;;1.73;1.20;;;13.30;99.90;;;;;;5019397;28;20178;-91
2023/10/28 10:09:18;;;;;;;1.27;1.00;;;13.20;99.90;;;;;;4970865;28;20207;-89
2023/10/28 10:11:45;;;;;;;4.97;2.67;;;13.20;99.90;;;;;;4987617;28;20231;-91
2023/10/28 10:14:13;;;;;;;1.80;1.70;;;13.30;99.90;;;;;;5003289;28;20223;-89
2023/10/28 10:16:52;;;;;;;2.60;2.10;;;13.40;99.90;;;;;;5003653;28;20230;-90
2023/10/28 10:19:24;;;;;;;2.90;1.80;;;13.40;99.90;;;;;;5013474;28;20741;-91
2023/10/28 10:21:54;;;;;;;4.53;2.80;;;13.30;99.90;;;;;;5031616;28;20205;-91
2023/10/28 10:24:20;;;;;;;1.93;1.67;;;13.30;99.90;;;;;;5030525;28;20202;-91
2023/10/28 10:27:01;;;;;;;2.60;1.23;;;13.30;99.90;;;;;;5031919;28;20213;-89
2023/10/28 10:29:38;;;;;;;3.50;2.50;;;13.20;99.90;;;;;;5031530;28;20242;-90
2023/10/28 10:32:18;;;;;;;3.13;2.27;;;13.20;99.90;;;;;;5047359;28;20657;-90
2023/10/28 10:34:47;;;;;;;2.30;1.57;;;13.10;99.90;;;;;;5045996;28;20206;-89
2023/10/28 10:37:25;;;;;;;2.60;1.77;;;13.20;99.90;;;;;;5029374;28;20182;-91
2023/10/28 10:39:53;;;;;;;2.47;1.53;;;13.20;99.90;;;;;;5032468;28;20170;-90
2023/10/28 10:42:20;;;;;;;2.20;1.70;;;13.30;99.90;;;;;;5029990;28;20209;-91
2023/10/28 10:44:46;;;;;;;3.60;2.90;;;13.30;99.90;;;;;;5023627;28;20297;-89
2023/10/28 10:47:17;;;;;;;2.10;1.90;;;13.40;99.90;;;;;;5012909;28;20580;-89
2023/10/28 10:49:43;;;;;;;5.70;2.70;;;13.40;99.90;;;;;;4995339;28;20209;-87
2023/10/28 10:52:09;;;;;;;2.17;1.50;;;13.30;99.90;;;;;;5030354;28;20216;-90
2023/10/28 10:54:38;;;;;;;3.07;2.10;;;13.30;99.90;;;;;;5030119;28;20238;-91
2023/10/28 10:57:07;;;;;;;1.23;1.20;;;13.30;99.90;;;;;;5029496;28;20206;-92
2023/10/28 10:59:36;;;;;;;3.13;2.17;;;13.30;99.90;;;;;;5032041;28;20586;-89
2023/10/28 11:02:02;;;;;;;2.83;1.43;;;13.30;99.90;;;;;;5030250;28;20210;-91
2023/10/28 11:04:30;;;;;;;1.83;1.67;;;13.40;99.90;;;;;;4997651;28;20646;-89
2023/10/28 11:06:56;;;;;;;3.60;1.90;;;13.50;99.90;;;;;;5030296;28;20294;-90
2023/10/28 11:09:22;;;;;;;2.13;1.57;;;13.60;99.90;;;;;;5011129;28;20218;-89
2023/10/28 11:11:49;;;;;;;3.17;2.47;;;13.60;99.90;;;;;;5020945;28;20217;-89
2023/10/28 11:14:15;;;;;;;1.60;1.37;;;13.70;99.90;;;;;;5027373;28;20210;-89
2023/10/28 11:16:42;;;;;;;3.30;1.10;;;13.60;99.90;;;;;;5028862;28;20224;-89
2023/10/28 11:19:09;;;;;;;1.43;1.33;;;13.60;99.90;;;;;;5011795;28;20186;-88
2023/10/28 11:21:36;;;;;;;2.40;1.27;;;13.60;99.90;;;;;;4993870;28;20287;-89
2023/10/28 11:24:04;;;;;;;1.73;1.40;;;13.70;99.90;;;;;;5010180;28;20207;-88
2023/10/28 11:26:30;;;;;;;6.53;2.27;;;13.60;99.90;;;;;;5016683;28;20214;-89
2023/10/28 11:29:00;;;;;;;2.73;2.27;;;13.60;99.90;;;;;;5011467;28;20202;-90
2023/10/28 11:31:29;;;;;;;4.53;2.00;;;13.60;99.90;;;;;;5027680;28;20214;-88
2023/10/28 11:33:57;;;;;;;3.57;3.23;;;13.60;99.90;;;;;;5025609;28;20240;-90
2023/10/28 11:36:23;;;;;;;2.63;2.40;;;13.60;99.90;;;;;;5003768;28;20225;-89
2023/10/28 11:38:50;;;;;;;2.60;1.33;;;13.60;99.90;;;;;;5009064;28;20210;-90
2023/10/28 11:41:16;;;;;;;2.37;1.90;;;13.60;99.90;;;;;;5002595;28;20217;-89
2023/10/28 11:43:42;;;;;;;2.97;1.77;;;13.60;99.90;;;;;;4995655;28;20300;-88
2023/10/28 11:46:08;;;;;;;2.67;1.17;;;13.60;99.90;;;;;;5029475;28;20281;-90
2023/10/28 11:48:34;;;;;;;3.60;1.80;;;13.60;99.90;;;;;;4994474;28;20218;-90
2023/10/28 11:51:04;;;;;;;1.70;1.60;;;13.50;99.90;;;;;;5011111;28;20260;-89
2023/10/28 11:53:30;;;;;;;4.67;2.20;;;13.50;99.90;;;;;;5027122;28;20702;-90
2023/10/28 11:55:57;;;;;;;2.30;1.83;;;13.60;99.90;;;;;;5013523;28;20202;-89
2023/10/28 11:58:26;;;;;;;3.53;1.80;;;13.60;99.90;;;;;;4987996;28;20218;-89
2023/10/28 12:00:56;;;;;;;1.77;1.53;;;13.60;99.90;;;;;;5028791;28;20188;-89
2023/10/28 12:03:25;;;;;;;1.93;1.37;;;13.70;99.90;;;;;;5018461;28;20812;-90
2023/10/28 12:05:51;;;;;;;2.53;2.33;;;13.70;99.90;;;;;;4994374;28;20225;-89
2023/10/28 12:08:17;;;;;;;1.87;1.33;;;13.80;99.90;;;;;;5003026;28;21738;-89
2023/10/28 12:10:43;;;;;;;4.17;1.37;;;13.80;99.90;;;;;;5011019;28;20245;-89
2023/10/28 12:13:18;;;;;;;1.47;1.37;;;13.70;99.90;;;;;;4996697;28;20216;-90
2023/10/28 12:15:44;;;;;;;1.67;1.10;;;13.80;99.90;;;;;;5027155;28;20706;-89
2023/10/28 12:18:10;;;;;;;1.37;1.27;;;13.80;99.90;;;;;;4996419;28;20270;-91
2023/10/28 12:20:37;;;;;;;3.93;2.43;;;13.90;99.90;;;;;;5026701;28;20285;-89
2023/10/28 12:23:04;;;;;;;1.10;1.00;;;13.90;99.90;;;;;;5011368;28;20300;-90
2023/10/28 12:25:30;;;;;;;3.10;1.87;;;14.00;99.90;;;;;;5021669;28;25017;-89
2023/10/28 12:27:55;;;;;;;3.13;2.47;;;14.00;99.90;;;;;;4993377;28;20194;-89
2023/10/28 12:30:21;;;;;;;7.77;1.73;;;14.20;99.90;;;;;;4990397;28;20296;-90
2023/10/28 12:32:49;;;;;;;1.47;1.37;;;14.20;99.90;;;;;;5029513;28;20226;-90
2023/10/28 12:35:15;;;;;;;7.37;1.73;;;14.20;99.90;;;;;;5026340;28;20222;-91
2023/10/28 12:37:41;;;;;;;2.23;1.73;;;14.20;99.90;;;;;;4997813;28;20701;-90
2023/10/28 12:40:09;;;;;;;1.50;1.40;;;14.20;99.90;;;;;;5012646;28;20213;-91
2023/10/28 12:42:36;;;;;;;2.43;1.60;;;14.30;99.90;;;;;;5024775;28;20214;-90
2023/10/28 12:45:04;;;;;;;2.70;2.03;;;14.40;99.90;;;;;;5013287;28;21393;-89
2023/10/28 12:47:30;;;;;;;2.63;1.57;;;14.40;99.90;;;;;;5013103;28;20268;-90